createdAt,value
2022-08-14T00:01:46.148Z,11.45
2022-08-14T00:05:58.435Z,11.43
2022-08-14T00:10:51.513Z,11.30
2022-08-14T00:14:27.385Z,11.63
2022-08-14T00:19:06.578Z,12.48
2022-08-14T00:22:57.453Z,11.68
2022-08-14T00:31:06.486Z,11.90
2022-08-14T00:35:07.507Z,12.70
2022-08-14T00:39:18.223Z,12.15
2022-08-14T00:43:18.270Z,12.80
2022-08-14T00:47:24.560Z,13.25
2022-08-14T00:51:34.738Z,14.52
2022-08-14T00:55:41.236Z,13.93
2022-08-14T00:59:48.957Z,13.95
2022-08-14T01:03:57.416Z,14.63
2022-08-14T01:07:59.502Z,14.15
2022-08-14T01:12:03.542Z,13.07
2022-08-14T01:16:06.311Z,12.10
2022-08-14T01:20:27.717Z,12.27
2022-08-14T01:24:34.358Z,12.98
2022-08-14T01:28:56.253Z,13.38
2022-08-14T01:32:59.330Z,12.13
2022-08-14T01:37:18.815Z,13.15
2022-08-14T01:41:23.176Z,12.23
2022-08-14T01:45:31.455Z,12.80
2022-08-14T01:49:45.999Z,11.77
2022-08-14T01:54:17.525Z,12.10
2022-08-14T01:58:28.815Z,10.23
2022-08-14T02:02:30.722Z,10.68
2022-08-14T02:06:39.420Z,10.20
2022-08-14T02:10:47.257Z,11.30
2022-08-14T02:14:50.833Z,9.50
2022-08-14T02:19:04.061Z,8.88
2022-08-14T02:23:05.727Z,10.02
2022-08-14T02:28:23.806Z,10.23
2022-08-14T02:31:42.250Z,9.63
2022-08-14T02:35:43.674Z,8.55
2022-08-14T02:39:53.374Z,9.15
2022-08-14T02:43:53.033Z,8.32
2022-08-14T02:48:03.090Z,8.68
2022-08-14T02:52:26.778Z,8.25
2022-08-14T02:57:15.784Z,8.95
2022-08-14T03:00:51.143Z,8.40
2022-08-14T03:04:57.333Z,8.65
2022-08-14T03:08:58.903Z,8.57
2022-08-14T03:13:00.895Z,8.75
2022-08-14T03:17:01.107Z,7.45
2022-08-14T03:21:04.208Z,8.77
2022-08-14T03:25:10.897Z,8.63
2022-08-14T03:29:14.196Z,8.75
2022-08-14T03:33:14.954Z,14.57
2022-08-14T03:37:50.836Z,9.57
2022-08-14T03:41:40.291Z,8.20
2022-08-14T03:45:48.005Z,8.82
2022-08-14T03:49:50.198Z,9.85
2022-08-14T03:53:53.089Z,9.90
2022-08-14T03:57:52.999Z,10.35
2022-08-14T04:02:01.269Z,9.65
2022-08-14T04:06:09.766Z,9.07
2022-08-14T04:10:17.223Z,9.27
2022-08-14T04:14:17.376Z,9.57
2022-08-14T04:18:18.328Z,8.55
2022-08-14T04:22:22.006Z,8.85
2022-08-14T04:26:27.164Z,9.77
2022-08-14T04:30:39.131Z,9.02
2022-08-14T04:34:45.496Z,10.10
2022-08-14T04:39:09.263Z,10.65
2022-08-14T04:43:38.839Z,10.63
2022-08-14T04:47:55.846Z,10.57
2022-08-14T04:51:56.416Z,9.48
2022-08-14T04:55:56.705Z,10.25
2022-08-14T04:59:59.395Z,9.73
2022-08-14T05:04:01.973Z,11.38
2022-08-14T05:08:10.320Z,9.77
2022-08-14T05:13:11.737Z,9.15
2022-08-14T05:16:53.455Z,8.65
2022-08-14T05:21:55.987Z,9.07
2022-08-14T05:25:20.341Z,8.95
2022-08-14T05:29:20.285Z,8.55
2022-08-14T05:33:24.125Z,9.60
2022-08-14T05:37:24.358Z,9.27
2022-08-14T05:41:51.026Z,9.20
2022-08-14T05:45:55.415Z,9.30
2022-08-14T05:49:59.655Z,9.27
2022-08-14T05:54:12.683Z,10.63
2022-08-14T05:58:18.532Z,10.10
2022-08-14T06:02:21.746Z,8.93
2022-08-14T06:06:23.563Z,9.13
2022-08-14T06:10:25.336Z,10.18
2022-08-14T06:14:28.048Z,9.25
2022-08-14T06:18:27.336Z,9.27
2022-08-14T06:22:34.075Z,8.27
2022-08-14T06:26:34.588Z,9.02
2022-08-14T06:30:45.938Z,9.32
2022-08-14T06:35:10.863Z,8.82
2022-08-14T06:39:10.160Z,9.60
2022-08-14T06:43:12.266Z,11.25
2022-08-14T06:47:15.973Z,10.27
2022-08-14T06:51:15.017Z,9.90
2022-08-14T06:55:20.734Z,11.05
2022-08-14T06:59:25.070Z,11.07
2022-08-14T07:03:41.121Z,11.68
2022-08-14T07:07:44.086Z,9.45
2022-08-14T07:11:45.787Z,10.82
2022-08-14T07:15:49.829Z,11.10
2022-08-14T07:19:54.856Z,12.75
2022-08-14T07:23:54.827Z,11.25
2022-08-14T07:28:00.850Z,11.00
2022-08-14T07:32:00.433Z,11.57
2022-08-14T07:36:03.355Z,12.27
2022-08-14T07:40:27.512Z,11.63
2022-08-14T07:44:35.750Z,12.07
2022-08-14T07:48:40.796Z,11.75
2022-08-14T07:52:49.216Z,12.48
2022-08-14T07:56:52.024Z,13.52
2022-08-14T08:00:57.177Z,12.10
2022-08-14T08:04:59.165Z,13.88
2022-08-14T08:09:02.911Z,14.15
2022-08-14T08:13:05.061Z,13.25
2022-08-14T08:17:07.701Z,16.73
2022-08-14T08:21:08.969Z,13.00
2022-08-14T08:25:17.968Z,12.93
2022-08-14T08:29:31.475Z,12.85
2022-08-14T08:40:04.187Z,12.25
2022-08-14T08:44:48.468Z,11.63
2022-08-14T08:53:37.770Z,11.77
2022-08-14T08:58:25.416Z,12.05
2022-08-14T09:02:59.118Z,12.48
2022-08-14T09:07:23.547Z,12.32
2022-08-14T09:11:30.563Z,11.25
2022-08-14T09:15:36.584Z,11.48
2022-08-14T09:19:44.338Z,12.57
2022-08-14T09:24:26.855Z,10.77
2022-08-14T09:28:11.649Z,9.82
2022-08-14T09:32:58.862Z,9.23
2022-08-14T09:36:59.438Z,9.52
2022-08-14T09:41:12.856Z,4.65
2022-08-14T09:50:32.185Z,5.82
2022-08-14T09:54:41.200Z,5.30
2022-08-14T09:58:49.320Z,5.25
2022-08-14T10:08:16.788Z,4.35
2022-08-14T10:12:29.216Z,4.55
2022-08-14T10:16:33.294Z,4.72
2022-08-14T10:20:39.980Z,4.50
2022-08-14T10:24:51.049Z,7.00
2022-08-14T10:29:18.135Z,8.35
2022-08-14T10:33:12.424Z,8.40
2022-08-14T10:37:16.429Z,9.40
2022-08-14T10:41:20.420Z,8.30
2022-08-14T10:45:22.343Z,7.57
2022-08-14T10:49:28.488Z,7.38
2022-08-14T10:53:33.142Z,6.30
2022-08-14T10:57:35.262Z,5.60
2022-08-14T11:01:41.361Z,6.07
2022-08-14T11:05:46.346Z,4.72
2022-08-14T11:09:55.771Z,5.53
2022-08-14T11:13:59.701Z,5.28
2022-08-14T11:18:01.096Z,6.07
2022-08-14T11:22:01.439Z,5.45
2022-08-14T11:26:07.085Z,6.03
2022-08-14T11:30:48.914Z,6.97
2022-08-14T11:34:33.727Z,6.80
2022-08-14T11:38:40.282Z,8.20
2022-08-14T11:42:57.913Z,8.15
2022-08-14T11:47:07.023Z,7.30
2022-08-14T11:51:20.799Z,8.68
2022-08-14T11:55:38.062Z,7.80
2022-08-14T11:59:44.433Z,9.18
2022-08-14T12:03:57.126Z,7.70
2022-08-14T12:08:00.032Z,7.65
2022-08-14T12:12:16.152Z,7.65
2022-08-14T12:16:37.968Z,8.55
2022-08-14T12:20:45.608Z,7.88
2022-08-14T12:24:50.528Z,9.43
2022-08-14T12:28:59.817Z,11.07
2022-08-14T12:33:01.852Z,10.13
2022-08-14T12:37:09.176Z,10.80
2022-08-14T12:41:20.534Z,10.30
2022-08-14T12:45:35.634Z,10.48
2022-08-14T12:49:36.168Z,13.77
2022-08-14T12:53:41.988Z,12.93
2022-08-14T12:57:53.211Z,13.68
2022-08-14T13:02:08.720Z,15.77
2022-08-14T13:06:39.506Z,15.15
2022-08-14T13:10:52.294Z,15.15
2022-08-14T13:15:20.635Z,14.48
2022-08-14T13:19:30.356Z,14.43
2022-08-14T13:23:42.335Z,15.82
2022-08-14T13:27:59.544Z,16.40
2022-08-14T13:32:21.664Z,13.93
2022-08-14T13:36:51.475Z,13.93
2022-08-14T13:41:17.245Z,14.10
2022-08-14T13:46:00.246Z,13.50
2022-08-14T13:49:58.369Z,14.00
2022-08-14T13:54:55.623Z,12.65
2022-08-14T13:58:56.802Z,12.90
2022-08-14T14:03:07.267Z,11.27
2022-08-14T14:07:43.327Z,8.90
2022-08-14T14:11:57.556Z,11.00
2022-08-14T14:16:26.357Z,9.38
2022-08-14T14:24:44.243Z,9.70
2022-08-14T14:29:05.183Z,8.93
2022-08-14T14:35:17.898Z,8.38
2022-08-14T14:38:32.715Z,7.10
2022-08-14T14:42:55.655Z,6.60
2022-08-14T14:53:12.668Z,8.18
2022-08-14T14:57:37.661Z,8.18
2022-08-14T15:01:56.626Z,9.13
2022-08-14T15:06:21.869Z,8.88
2022-08-14T15:10:39.828Z,9.75
2022-08-14T15:14:56.121Z,8.48
2022-08-14T15:18:59.151Z,8.57
2022-08-14T15:23:00.602Z,11.07
2022-08-14T15:27:02.883Z,12.10
2022-08-14T15:31:06.800Z,12.55
2022-08-14T15:35:09.552Z,12.43
2022-08-14T15:39:13.595Z,12.60
2022-08-14T15:43:15.364Z,10.25
2022-08-14T15:47:21.996Z,8.65
2022-08-14T15:51:31.243Z,10.00
2022-08-14T15:55:31.665Z,11.00
2022-08-14T15:59:53.947Z,9.93
2022-08-14T16:03:58.612Z,10.15
2022-08-14T16:07:59.271Z,9.82
2022-08-14T16:12:01.410Z,9.02
2022-08-14T16:16:34.387Z,9.50
2022-08-14T16:20:42.030Z,9.80
2022-08-14T16:25:02.414Z,9.63
2022-08-14T16:29:07.288Z,9.02
2022-08-14T16:33:09.229Z,9.48
2022-08-14T16:37:34.173Z,8.75
2022-08-14T16:41:34.983Z,9.25
2022-08-14T16:45:42.367Z,10.00
2022-08-14T16:50:04.668Z,10.25
2022-08-14T16:54:20.568Z,9.68
2022-08-14T16:58:30.113Z,11.70
2022-08-14T17:02:39.076Z,11.43
2022-08-14T17:06:47.109Z,10.05
2022-08-14T17:11:10.782Z,9.68
2022-08-14T17:15:15.503Z,10.27
2022-08-14T17:19:17.702Z,10.32
2022-08-14T17:23:20.491Z,10.73
2022-08-14T17:27:34.827Z,11.55
2022-08-14T17:31:58.963Z,11.15
2022-08-14T17:36:20.877Z,11.02
2022-08-14T17:40:26.156Z,11.32
2022-08-14T17:44:33.810Z,11.30
2022-08-14T17:49:13.998Z,9.80
2022-08-14T17:53:15.789Z,10.95
2022-08-14T17:57:28.437Z,12.15
2022-08-14T18:01:32.338Z,9.82
2022-08-14T18:06:09.932Z,11.98
2022-08-14T18:10:53.149Z,12.05
2022-08-14T18:14:48.600Z,12.23
2022-08-14T18:18:57.303Z,13.43
2022-08-14T18:22:58.567Z,13.30
2022-08-14T18:27:09.070Z,13.85
2022-08-14T18:31:42.353Z,13.65
2022-08-14T18:35:58.149Z,12.63
2022-08-14T18:40:34.428Z,14.43
2022-08-14T18:45:15.622Z,14.88
2022-08-14T18:49:17.493Z,14.13
2022-08-14T18:53:24.535Z,14.90
2022-08-14T18:57:26.169Z,13.65
2022-08-14T19:01:30.413Z,15.07
2022-08-14T19:06:00.860Z,14.05
2022-08-14T19:10:07.660Z,15.77
2022-08-14T19:14:09.854Z,16.02
2022-08-14T19:18:26.471Z,16.02
2022-08-14T19:22:31.853Z,17.92
2022-08-14T19:26:47.444Z,17.48
2022-08-14T19:31:15.098Z,17.85
2022-08-14T19:35:49.606Z,17.65
2022-08-14T19:39:59.316Z,16.30
2022-08-14T19:44:31.607Z,15.75
2022-08-14T19:48:34.458Z,15.13
2022-08-14T19:52:40.142Z,15.50
2022-08-14T19:56:45.281Z,14.90
2022-08-14T20:00:58.931Z,14.48
2022-08-14T20:05:02.995Z,14.57
2022-08-14T20:11:12.757Z,14.07
2022-08-14T20:13:33.134Z,15.57
2022-08-14T20:17:43.406Z,14.73
2022-08-14T20:21:58.357Z,14.95
2022-08-14T20:26:31.814Z,14.80
2022-08-14T20:30:48.629Z,15.73
2022-08-14T20:34:59.416Z,17.38
2022-08-14T20:39:00.737Z,14.13
2022-08-14T20:43:35.436Z,17.25
2022-08-14T20:48:14.706Z,15.60
2022-08-14T20:52:51.711Z,16.60
2022-08-14T20:57:10.257Z,17.10
2022-08-14T21:01:44.456Z,17.43
2022-08-14T21:06:01.633Z,18.40
2022-08-14T21:10:33.585Z,18.98
2022-08-14T21:14:51.810Z,19.73
2022-08-14T21:19:02.140Z,18.33
2022-08-14T21:23:11.368Z,16.35
2022-08-14T21:27:22.957Z,18.05
2022-08-14T21:31:33.859Z,16.02
2022-08-14T21:35:59.301Z,15.75
2022-08-14T21:40:41.802Z,15.35
2022-08-14T21:44:58.405Z,16.55
2022-08-14T21:49:23.858Z,17.40
2022-08-14T21:53:59.210Z,16.20
2022-08-14T21:58:53.299Z,16.95
2022-08-14T22:02:38.254Z,15.48
2022-08-14T22:06:51.157Z,15.70
2022-08-14T22:10:57.505Z,14.30
2022-08-14T22:15:00.862Z,12.73
2022-08-14T22:19:22.594Z,14.73
2022-08-14T22:23:45.174Z,14.80
2022-08-14T22:27:56.269Z,14.10
2022-08-14T22:32:09.489Z,14.48
2022-08-14T22:36:45.381Z,13.43
2022-08-14T22:41:25.371Z,14.60
2022-08-14T22:45:36.217Z,13.73
2022-08-14T22:50:29.474Z,12.20
2022-08-14T22:54:53.411Z,13.45
2022-08-14T22:59:00.384Z,14.02
2022-08-14T23:03:19.539Z,13.10
2022-08-14T23:08:57.018Z,13.25
2022-08-14T23:12:27.786Z,13.60
2022-08-14T23:16:50.989Z,14.27
2022-08-14T23:21:28.916Z,14.57
2022-08-14T23:25:59.892Z,14.63
2022-08-14T23:30:34.114Z,14.20
2022-08-14T23:34:56.089Z,13.82
2022-08-14T23:39:10.475Z,13.05
2022-08-14T23:43:19.817Z,13.52
2022-08-14T23:47:31.911Z,13.95
2022-08-14T23:52:55.917Z,11.88
2022-08-14T23:56:31.856Z,14.07
